createdAt,value
2022-11-08T00:00:00.622Z,25.35
2022-11-08T00:02:27.820Z,26.02
2022-11-08T00:04:55.620Z,25.60
2022-11-08T00:07:41.119Z,26.52
2022-11-08T00:10:27.237Z,24.52
2022-11-08T00:13:13.063Z,24.48
2022-11-08T00:15:40.102Z,25.17
2022-11-08T00:18:08.103Z,23.98
2022-11-08T00:20:35.344Z,24.98
2022-11-08T00:23:02.488Z,24.50
2022-11-08T00:25:29.436Z,24.55
2022-11-08T00:27:57.429Z,23.08
2022-11-08T00:30:24.565Z,24.23
2022-11-08T00:32:51.639Z,23.92
2022-11-08T00:35:18.637Z,24.88
2022-11-08T00:37:45.745Z,24.65
2022-11-08T00:40:13.031Z,23.55
2022-11-08T00:42:40.224Z,24.02
2022-11-08T00:45:07.715Z,24.35
2022-11-08T00:47:34.898Z,24.60
2022-11-08T00:50:02.110Z,23.98
2022-11-08T00:52:30.992Z,25.40
2022-11-08T00:54:58.235Z,24.98
2022-11-08T00:57:41.110Z,25.48
2022-11-08T01:00:13.175Z,24.65
2022-11-08T01:02:40.450Z,26.20
2022-11-08T01:05:07.791Z,25.45
2022-11-08T01:07:34.947Z,26.52
2022-11-08T01:10:02.170Z,26.30
2022-11-08T01:12:30.688Z,26.27
2022-11-08T01:14:57.902Z,26.70
2022-11-08T01:17:25.046Z,27.10
2022-11-08T01:19:52.017Z,26.15
2022-11-08T01:22:19.023Z,28.25
2022-11-08T01:24:45.981Z,26.50
2022-11-08T01:27:13.041Z,27.30
2022-11-08T01:29:40.125Z,28.13
2022-11-08T01:32:07.270Z,28.05
2022-11-08T01:34:34.393Z,28.23
2022-11-08T01:37:01.486Z,28.17
2022-11-08T01:39:33.108Z,28.70
2022-11-08T01:42:00.189Z,28.58
2022-11-08T01:44:27.373Z,27.95
2022-11-08T01:46:54.432Z,29.38
2022-11-08T01:49:53.267Z,28.38
2022-11-08T01:52:27.355Z,28.42
2022-11-08T01:55:03.426Z,28.17
2022-11-08T01:57:44.762Z,28.20
2022-11-08T02:00:13.000Z,28.30
2022-11-08T02:02:42.877Z,26.98
2022-11-08T02:05:27.963Z,30.27
2022-11-08T02:08:04.116Z,26.70
2022-11-08T02:10:40.137Z,28.65
2022-11-08T02:13:16.050Z,28.33
2022-11-08T02:15:43.896Z,27.13
2022-11-08T02:18:12.077Z,26.95
2022-11-08T02:20:43.850Z,27.00
2022-11-08T02:23:32.438Z,27.38
2022-11-08T02:25:59.477Z,27.55
2022-11-08T02:28:26.591Z,28.13
2022-11-08T02:30:54.732Z,27.10
2022-11-08T02:33:23.549Z,28.40
2022-11-08T02:35:56.754Z,28.67
2022-11-08T02:38:26.559Z,27.17
2022-11-08T02:40:58.580Z,28.37
2022-11-08T02:43:26.373Z,29.13
2022-11-08T02:45:53.590Z,28.77
2022-11-08T02:48:21.078Z,27.60
2022-11-08T02:50:48.426Z,28.00
2022-11-08T02:53:15.814Z,28.67
2022-11-08T02:55:43.537Z,28.45
2022-11-08T02:58:11.714Z,28.27
2022-11-08T03:00:39.841Z,28.65
2022-11-08T03:03:07.023Z,26.77
2022-11-08T03:05:34.383Z,27.60
2022-11-08T03:08:01.832Z,28.30
2022-11-08T03:10:30.370Z,27.55
2022-11-08T03:12:58.808Z,28.10
2022-11-08T03:15:27.067Z,28.70
2022-11-08T03:17:55.728Z,27.48
2022-11-08T03:20:22.919Z,28.10
2022-11-08T03:22:56.897Z,28.63
2022-11-08T03:25:23.960Z,27.52
2022-11-08T03:27:51.031Z,27.02
2022-11-08T03:30:18.419Z,26.20
2022-11-08T03:32:48.731Z,26.98
2022-11-08T03:35:16.146Z,25.67
2022-11-08T03:37:54.466Z,27.52
2022-11-08T03:40:22.500Z,26.73
2022-11-08T03:42:49.642Z,25.30
2022-11-08T03:45:16.613Z,27.95
2022-11-08T03:47:46.045Z,26.52
2022-11-08T03:50:14.786Z,24.75
2022-11-08T03:52:48.094Z,26.00
2022-11-08T03:55:16.735Z,26.00
2022-11-08T03:57:46.239Z,25.70
2022-11-08T04:00:16.113Z,23.83
2022-11-08T04:02:44.016Z,25.30
2022-11-08T04:05:13.307Z,25.27
2022-11-08T04:07:40.644Z,24.88
2022-11-08T04:10:09.300Z,24.17
2022-11-08T04:12:58.556Z,25.17
2022-11-08T04:15:26.040Z,24.08
2022-11-08T04:18:12.933Z,25.95
2022-11-08T04:21:06.494Z,25.80
2022-11-08T04:23:37.089Z,23.85
2022-11-08T04:26:08.570Z,25.25
2022-11-08T04:28:37.641Z,24.30
2022-11-08T04:31:08.117Z,25.45
2022-11-08T04:33:35.253Z,23.95
2022-11-08T04:36:04.903Z,22.88
2022-11-08T04:38:32.821Z,23.90
2022-11-08T04:41:04.784Z,22.20
2022-11-08T04:43:32.295Z,23.98
2022-11-08T04:46:04.988Z,23.05
2022-11-08T04:48:32.744Z,23.83
2022-11-08T04:51:12.298Z,23.60
2022-11-08T04:53:39.263Z,23.38
2022-11-08T04:56:08.760Z,24.98
2022-11-08T04:58:38.499Z,23.48
2022-11-08T05:01:06.498Z,23.90
2022-11-08T05:03:34.333Z,24.33
2022-11-08T05:06:06.602Z,24.05
2022-11-08T05:08:33.821Z,23.98
2022-11-08T05:11:09.587Z,24.35
2022-11-08T05:13:36.697Z,24.85
2022-11-08T05:16:25.120Z,24.27
2022-11-08T05:18:52.376Z,23.63
2022-11-08T05:21:39.329Z,21.63
2022-11-08T05:24:08.524Z,23.65
2022-11-08T05:26:38.260Z,21.80
2022-11-08T05:29:06.242Z,22.85
2022-11-08T05:31:33.933Z,22.05
2022-11-08T05:34:01.331Z,21.52
2022-11-08T05:36:29.101Z,21.92
2022-11-08T05:38:56.305Z,22.10
2022-11-08T05:41:24.898Z,18.83
2022-11-08T05:43:54.402Z,20.40
2022-11-08T05:46:22.910Z,20.73
2022-11-08T05:48:50.360Z,21.48
2022-11-08T05:51:19.028Z,20.45
2022-11-08T05:53:47.256Z,19.92
2022-11-08T05:56:14.309Z,18.63
2022-11-08T05:58:41.263Z,18.10
2022-11-08T06:01:11.495Z,19.35
2022-11-08T06:03:39.072Z,16.88
2022-11-08T06:06:12.122Z,18.23
2022-11-08T06:08:39.947Z,17.45
2022-11-08T06:11:09.711Z,16.38
2022-11-08T06:13:37.751Z,18.07
2022-11-08T06:16:07.274Z,16.88
2022-11-08T06:18:35.069Z,15.68
2022-11-08T06:21:03.422Z,16.13
2022-11-08T06:23:30.643Z,16.40
2022-11-08T06:25:58.691Z,16.55
2022-11-08T06:28:26.356Z,16.05
2022-11-08T06:30:53.575Z,17.35
2022-11-08T06:33:21.714Z,16.85
2022-11-08T06:35:49.430Z,16.38
2022-11-08T06:38:16.476Z,15.50
2022-11-08T06:40:43.525Z,16.48
2022-11-08T06:43:16.412Z,16.30
2022-11-08T06:45:46.447Z,16.55
2022-11-08T06:48:13.408Z,16.40
2022-11-08T06:50:42.302Z,16.10
2022-11-08T06:53:12.271Z,15.93
2022-11-08T06:55:39.442Z,16.83
2022-11-08T06:58:06.470Z,16.52
2022-11-08T07:00:33.539Z,16.42
2022-11-08T07:03:02.548Z,16.98
2022-11-08T07:05:31.487Z,17.65
2022-11-08T07:07:59.434Z,15.48
2022-11-08T07:10:29.247Z,15.80
2022-11-08T07:13:07.537Z,16.13
2022-11-08T07:15:36.043Z,15.38
2022-11-08T07:18:05.046Z,15.88
2022-11-08T07:20:32.507Z,16.88
2022-11-08T07:23:00.218Z,16.48
2022-11-08T07:25:29.043Z,16.73
2022-11-08T07:28:00.002Z,17.95
2022-11-08T07:30:27.844Z,17.00
2022-11-08T07:32:58.549Z,17.60
2022-11-08T07:37:54.030Z,18.05
2022-11-08T07:40:21.151Z,17.75
2022-11-08T07:45:35.085Z,17.63
2022-11-08T07:48:09.753Z,17.40
2022-11-08T07:50:38.771Z,17.88
2022-11-08T07:53:05.736Z,18.00
2022-11-08T07:55:32.871Z,17.98
2022-11-08T07:58:03.224Z,18.58
2022-11-08T08:00:31.775Z,16.65
2022-11-08T08:03:02.970Z,17.85
2022-11-08T08:05:34.809Z,17.58
2022-11-08T08:08:02.548Z,19.35
2022-11-08T08:10:30.713Z,19.05
2022-11-08T08:12:58.251Z,20.05
2022-11-08T08:15:25.311Z,18.70
2022-11-08T08:17:52.327Z,20.48
2022-11-08T08:20:19.646Z,19.55
2022-11-08T08:22:51.441Z,19.98
2022-11-08T08:25:19.311Z,18.95
2022-11-08T08:27:53.015Z,19.50
2022-11-08T08:30:20.693Z,20.27
2022-11-08T08:32:57.899Z,19.65
2022-11-08T08:35:36.662Z,19.27
2022-11-08T08:38:04.501Z,20.38
2022-11-08T08:40:32.366Z,20.15
2022-11-08T08:43:01.135Z,19.05
2022-11-08T08:45:28.388Z,20.65
2022-11-08T08:47:56.477Z,23.15
2022-11-08T08:50:25.224Z,20.52
2022-11-08T08:52:52.218Z,18.95
2022-11-08T08:55:28.408Z,19.15
2022-11-08T08:57:55.867Z,19.38
2022-11-08T09:03:11.032Z,42.42
2022-11-08T09:05:41.977Z,18.55
2022-11-08T09:08:08.943Z,19.90
2022-11-08T09:10:36.318Z,19.77
2022-11-08T09:13:03.827Z,19.52
2022-11-08T09:15:30.969Z,17.95
2022-11-08T09:17:58.382Z,17.30
2022-11-08T09:20:25.908Z,17.38
2022-11-08T09:22:52.918Z,18.35
2022-11-08T09:25:19.938Z,17.08
2022-11-08T09:27:47.009Z,15.95
2022-11-08T09:30:14.154Z,17.15
2022-11-08T09:35:29.318Z,18.27
2022-11-08T09:37:57.491Z,16.35
2022-11-08T09:40:31.692Z,16.80
2022-11-08T09:42:58.604Z,17.40
2022-11-08T09:45:41.933Z,16.77
2022-11-08T09:48:20.874Z,17.33
2022-11-08T09:50:52.173Z,17.42
2022-11-08T09:53:27.569Z,17.45
2022-11-08T09:56:01.602Z,17.13
2022-11-08T09:58:36.236Z,17.15
2022-11-08T10:01:04.028Z,16.42
2022-11-08T10:03:31.075Z,17.85
2022-11-08T10:06:14.080Z,17.75
2022-11-08T10:08:59.565Z,16.58
2022-11-08T10:11:44.671Z,16.75
2022-11-08T10:14:23.189Z,17.98
2022-11-08T10:17:11.285Z,17.63
2022-11-08T10:20:06.968Z,17.13
2022-11-08T10:22:49.330Z,15.60
2022-11-08T10:25:47.997Z,16.38
2022-11-08T10:28:18.190Z,15.45
2022-11-08T10:30:49.647Z,14.50
2022-11-08T10:33:28.286Z,14.65
2022-11-08T10:36:09.371Z,13.90
2022-11-08T10:38:45.286Z,14.60
2022-11-08T10:41:54.175Z,14.45
2022-11-08T10:44:24.431Z,13.77
2022-11-08T10:46:57.374Z,14.20
2022-11-08T10:49:37.458Z,15.10
2022-11-08T10:52:34.993Z,15.52
2022-11-08T10:55:05.874Z,14.77
2022-11-08T11:00:18.623Z,13.95
2022-11-08T11:02:48.825Z,13.63
2022-11-08T11:05:15.783Z,13.63
2022-11-08T11:07:59.275Z,14.52
2022-11-08T11:10:46.633Z,12.88
2022-11-08T11:16:05.084Z,13.70
2022-11-08T11:18:35.913Z,12.30
2022-11-08T11:21:23.944Z,12.32
2022-11-08T11:23:50.816Z,13.13
2022-11-08T11:26:29.522Z,12.43
2022-11-08T11:29:05.344Z,12.48
2022-11-08T11:31:40.704Z,12.00
2022-11-08T11:34:16.866Z,12.02
2022-11-08T11:37:13.862Z,12.55
2022-11-08T11:39:52.642Z,12.18
2022-11-08T11:42:58.266Z,11.82
2022-11-08T11:46:03.977Z,12.30
2022-11-08T11:48:44.878Z,11.95
2022-11-08T11:53:41.720Z,11.30
2022-11-08T11:56:46.864Z,11.68
2022-11-08T11:59:32.192Z,11.50
2022-11-08T12:02:23.340Z,11.15
2022-11-08T12:05:11.811Z,11.20
2022-11-08T12:07:47.044Z,10.07
2022-11-08T12:10:29.073Z,10.88
2022-11-08T12:13:03.979Z,11.93
2022-11-08T12:15:44.600Z,11.05
2022-11-08T12:18:41.383Z,10.95
2022-11-08T12:21:15.093Z,10.30
2022-11-08T12:23:56.567Z,10.73
2022-11-08T12:27:05.685Z,11.38
2022-11-08T12:29:32.555Z,10.32
2022-11-08T12:32:24.104Z,9.48
2022-11-08T12:35:22.316Z,10.55
2022-11-08T12:38:13.381Z,10.63
2022-11-08T12:40:54.923Z,10.45
2022-11-08T12:43:37.714Z,9.73
2022-11-08T12:46:18.778Z,10.50
2022-11-08T12:49:01.355Z,10.63
2022-11-08T12:52:15.782Z,10.65
2022-11-08T12:54:51.586Z,10.07
2022-11-08T12:57:22.276Z,10.40
2022-11-08T13:02:26.789Z,9.15
2022-11-08T13:05:11.985Z,10.80
2022-11-08T13:07:53.917Z,9.68
2022-11-08T13:10:47.863Z,9.55
2022-11-08T13:13:26.154Z,9.70
2022-11-08T13:16:08.463Z,9.25
2022-11-08T13:18:43.163Z,8.40
2022-11-08T13:21:28.533Z,9.65
2022-11-08T13:24:43.461Z,8.55
2022-11-08T13:27:41.994Z,9.27
2022-11-08T13:30:12.015Z,8.98
2022-11-08T13:32:54.006Z,9.13
2022-11-08T13:35:37.839Z,8.73
2022-11-08T13:38:16.408Z,9.50
2022-11-08T13:40:58.067Z,9.63
2022-11-08T13:43:29.536Z,9.77
2022-11-08T13:46:17.050Z,9.95
2022-11-08T13:49:03.563Z,9.27
2022-11-08T13:51:33.924Z,8.57
2022-11-08T13:54:21.997Z,10.05
2022-11-08T13:56:54.521Z,8.48
2022-11-08T13:59:33.590Z,8.88
2022-11-08T14:02:03.784Z,8.40
2022-11-08T14:04:41.267Z,7.97
2022-11-08T14:07:24.738Z,8.43
2022-11-08T14:10:30.403Z,8.32
2022-11-08T14:13:10.263Z,8.25
2022-11-08T14:15:53.226Z,7.95
2022-11-08T14:18:32.343Z,7.60
2022-11-08T14:21:00.026Z,7.97
2022-11-08T14:23:31.721Z,7.85
2022-11-08T14:26:02.660Z,7.65
2022-11-08T14:28:38.468Z,7.97
2022-11-08T14:31:08.019Z,8.50
2022-11-08T14:33:42.600Z,8.82
2022-11-08T14:36:16.781Z,7.93
2022-11-08T14:42:13.482Z,8.10
2022-11-08T14:44:44.160Z,7.80
2022-11-08T14:49:49.292Z,7.85
2022-11-08T14:52:23.196Z,7.68
2022-11-08T14:55:05.047Z,8.18
2022-11-08T14:57:39.621Z,8.10
2022-11-08T15:00:19.101Z,8.70
2022-11-08T15:03:06.489Z,8.27
2022-11-08T15:05:41.281Z,8.07
2022-11-08T15:08:27.172Z,8.43
2022-11-08T15:11:08.727Z,7.38
2022-11-08T15:13:48.706Z,8.52
2022-11-08T15:16:16.278Z,8.90
2022-11-08T15:18:45.053Z,7.45
2022-11-08T15:21:12.379Z,7.80
2022-11-08T15:23:43.488Z,8.00
2022-11-08T15:26:24.418Z,9.45
2022-11-08T15:29:12.879Z,8.30
2022-11-08T15:32:01.614Z,8.77
2022-11-08T15:34:39.318Z,9.43
2022-11-08T15:37:30.932Z,9.32
2022-11-08T15:40:02.382Z,8.93
2022-11-08T15:42:34.053Z,9.05
2022-11-08T15:45:14.674Z,9.57
2022-11-08T15:47:41.778Z,10.15
2022-11-08T15:50:11.573Z,10.23
2022-11-08T15:52:38.490Z,9.63
2022-11-08T15:55:05.980Z,9.85
2022-11-08T15:57:41.815Z,9.35
2022-11-08T16:00:16.862Z,8.90
2022-11-08T16:02:44.834Z,9.13
2022-11-08T16:05:17.381Z,9.25
2022-11-08T16:07:46.485Z,10.13
2022-11-08T16:10:16.321Z,10.05
2022-11-08T16:12:46.295Z,10.48
2022-11-08T16:15:18.087Z,9.95
2022-11-08T16:17:46.039Z,9.77
2022-11-08T16:20:29.161Z,10.15
2022-11-08T16:22:57.810Z,9.90
2022-11-08T16:25:28.738Z,10.60
2022-11-08T16:28:04.759Z,11.05
2022-11-08T16:30:34.491Z,10.88
2022-11-08T16:33:01.552Z,11.18
2022-11-08T16:35:28.646Z,11.00
2022-11-08T16:37:55.994Z,11.57
2022-11-08T16:40:25.068Z,10.93
2022-11-08T16:42:53.385Z,10.43
2022-11-08T16:45:43.469Z,11.20
2022-11-08T16:48:19.604Z,11.55
2022-11-08T16:50:47.024Z,10.93
2022-11-08T16:53:21.565Z,10.90
2022-11-08T16:55:48.998Z,11.05
2022-11-08T16:58:16.183Z,11.02
2022-11-08T17:00:45.193Z,11.45
2022-11-08T17:03:16.952Z,12.38
2022-11-08T17:05:44.008Z,12.18
2022-11-08T17:08:11.976Z,11.77
2022-11-08T17:10:39.343Z,11.75
2022-11-08T17:13:20.349Z,11.82
2022-11-08T17:16:06.139Z,12.10
2022-11-08T17:18:36.473Z,11.65
2022-11-08T17:21:37.751Z,11.48
2022-11-08T17:23:55.913Z,12.23
2022-11-08T17:26:23.292Z,11.80
2022-11-08T17:28:50.357Z,12.38
2022-11-08T17:31:22.108Z,12.63
2022-11-08T17:34:04.755Z,13.40
2022-11-08T17:36:37.469Z,13.07
2022-11-08T17:39:06.113Z,12.52
2022-11-08T17:41:33.933Z,12.95
2022-11-08T17:44:01.141Z,13.05
2022-11-08T17:46:29.492Z,13.40
2022-11-08T17:48:56.590Z,13.25
2022-11-08T17:51:23.697Z,13.45
2022-11-08T17:53:50.778Z,13.13
2022-11-08T17:56:17.815Z,13.88
2022-11-08T17:58:44.892Z,13.32
2022-11-08T18:01:12.264Z,14.18
2022-11-08T18:03:39.291Z,14.23
2022-11-08T18:06:12.249Z,14.73
2022-11-08T18:12:54.733Z,15.73
2022-11-08T18:15:21.763Z,14.90
2022-11-08T18:17:48.919Z,18.67
2022-11-08T18:20:16.801Z,16.98
2022-11-08T18:22:44.755Z,16.10
2022-11-08T18:25:11.710Z,16.75
2022-11-08T18:27:39.501Z,16.20
2022-11-08T18:30:07.270Z,16.30
2022-11-08T18:32:34.557Z,16.55
2022-11-08T18:35:01.684Z,16.23
2022-11-08T18:37:28.816Z,18.13
2022-11-08T18:39:55.979Z,16.48
2022-11-08T18:42:23.403Z,16.98
2022-11-08T18:44:50.594Z,19.33
2022-11-08T18:47:17.678Z,18.02
2022-11-08T18:49:44.879Z,18.02
2022-11-08T18:52:11.899Z,18.05
2022-11-08T18:54:39.064Z,18.58
2022-11-08T18:57:06.050Z,18.95
2022-11-08T18:59:33.077Z,19.17
2022-11-08T19:02:00.171Z,18.80
2022-11-08T19:04:28.875Z,19.13
2022-11-08T19:06:55.923Z,19.70
2022-11-08T19:09:23.444Z,21.10
2022-11-08T19:11:50.751Z,21.35
2022-11-08T19:14:17.814Z,19.92
2022-11-08T19:16:44.820Z,19.92
2022-11-08T19:19:12.054Z,20.05
2022-11-08T19:21:41.843Z,19.98
2022-11-08T19:24:11.172Z,21.15
2022-11-08T19:26:41.599Z,22.05
2022-11-08T19:29:10.848Z,20.90
2022-11-08T19:31:39.150Z,21.42
2022-11-08T19:34:06.409Z,21.27
2022-11-08T19:36:33.624Z,21.52
2022-11-08T19:39:00.625Z,21.95
2022-11-08T19:41:29.137Z,22.88
2022-11-08T19:43:56.271Z,21.35
2022-11-08T19:46:29.118Z,22.65
2022-11-08T19:48:57.230Z,22.40
2022-11-08T19:51:27.020Z,22.80
2022-11-08T19:53:59.632Z,23.43
2022-11-08T19:56:50.151Z,22.17
2022-11-08T19:59:14.424Z,21.83
2022-11-08T20:01:41.511Z,23.13
2022-11-08T20:04:11.011Z,24.58
2022-11-08T20:06:39.179Z,22.85
2022-11-08T20:09:07.675Z,24.50
2022-11-08T20:11:36.715Z,22.35
2022-11-08T20:14:05.464Z,23.30
2022-11-08T20:16:36.135Z,23.35
2022-11-08T20:19:09.937Z,23.00
2022-11-08T20:21:40.734Z,24.80
2022-11-08T20:26:38.650Z,24.75
2022-11-08T20:29:07.418Z,25.48
2022-11-08T20:31:35.122Z,24.08
2022-11-08T20:34:06.099Z,26.73
2022-11-08T20:36:35.349Z,24.88
2022-11-08T20:39:06.942Z,26.17
2022-11-08T20:41:37.635Z,25.83
2022-11-08T20:44:06.652Z,26.05
2022-11-08T20:46:34.689Z,25.77
2022-11-08T20:49:02.536Z,24.17
2022-11-08T20:51:30.736Z,24.90
2022-11-08T20:53:59.329Z,24.33
2022-11-08T20:56:27.371Z,24.35
2022-11-08T20:58:54.638Z,25.08
2022-11-08T21:01:24.572Z,24.35
2022-11-08T21:03:52.741Z,25.63
2022-11-08T21:06:24.910Z,23.38
2022-11-08T21:09:03.231Z,24.88
2022-11-08T21:11:34.631Z,25.15
2022-11-08T21:14:03.207Z,23.55
2022-11-08T21:16:35.383Z,24.13
2022-11-08T21:19:09.588Z,25.88
2022-11-08T21:21:37.419Z,24.85
2022-11-08T21:24:04.731Z,24.52
2022-11-08T21:26:36.367Z,24.73
2022-11-08T21:29:05.379Z,24.92
2022-11-08T21:31:33.630Z,24.02
2022-11-08T21:34:00.931Z,24.35
2022-11-08T21:36:29.322Z,24.40
2022-11-08T21:38:56.479Z,23.42
2022-11-08T21:41:23.636Z,23.05
2022-11-08T21:43:50.823Z,25.30
2022-11-08T21:46:25.861Z,24.30
2022-11-08T21:49:01.817Z,23.35
2022-11-08T21:51:29.917Z,24.67
2022-11-08T21:53:59.145Z,24.23
2022-11-08T21:56:30.596Z,24.08
2022-11-08T21:58:58.033Z,23.95
2022-11-08T22:01:29.934Z,24.15
2022-11-08T22:03:58.734Z,22.65
2022-11-08T22:06:26.541Z,24.65
2022-11-08T22:08:53.950Z,25.92
2022-11-08T22:11:21.055Z,24.10
2022-11-08T22:13:48.161Z,25.52
2022-11-08T22:16:15.197Z,24.63
2022-11-08T22:19:03.787Z,23.95
2022-11-08T22:21:38.521Z,23.92
2022-11-08T22:24:20.376Z,23.88
2022-11-08T22:26:48.973Z,23.85
2022-11-08T22:29:16.680Z,24.98
2022-11-08T22:31:44.259Z,24.15
2022-11-08T22:34:12.045Z,26.27
2022-11-08T22:36:44.987Z,24.63
2022-11-08T22:39:17.393Z,24.52
2022-11-08T22:41:45.647Z,24.65
2022-11-08T22:44:13.561Z,23.75
2022-11-08T22:46:45.410Z,25.85
2022-11-08T22:49:13.466Z,25.02
2022-11-08T22:51:41.212Z,26.00
2022-11-08T22:54:08.979Z,25.55
2022-11-08T22:56:36.745Z,24.17
2022-11-08T22:59:04.200Z,26.40
2022-11-08T23:01:31.723Z,26.65
2022-11-08T23:03:58.881Z,24.70
2022-11-08T23:06:26.092Z,25.63
2022-11-08T23:08:53.199Z,26.38
2022-11-08T23:11:38.495Z,25.50
2022-11-08T23:14:23.844Z,25.77
2022-11-08T23:21:33.678Z,26.00
2022-11-08T23:24:19.272Z,26.67
2022-11-08T23:27:05.015Z,26.33
2022-11-08T23:29:50.607Z,26.13
2022-11-08T23:32:17.547Z,25.90
2022-11-08T23:34:44.701Z,26.80
2022-11-08T23:37:11.702Z,26.77
2022-11-08T23:39:58.568Z,24.70
2022-11-08T23:42:44.302Z,24.80
2022-11-08T23:45:11.509Z,24.73
2022-11-08T23:47:38.543Z,26.90
2022-11-08T23:50:06.628Z,25.63
2022-11-08T23:52:33.971Z,24.55
2022-11-08T23:55:01.119Z,23.17
2022-11-08T23:57:31.304Z,24.27
2022-11-08T23:59:58.486Z,23.80
